createdAt,value
2022-10-17T00:01:21.906Z,11.20
2022-10-17T00:03:50.194Z,11.20
2022-10-17T00:06:31.677Z,11.10
2022-10-17T00:12:55.457Z,12.60
2022-10-17T00:18:12.966Z,11.20
2022-10-17T00:20:45.398Z,11.80
2022-10-17T00:28:16.136Z,11.20
2022-10-17T00:33:15.218Z,12.50
2022-10-17T00:35:45.594Z,11.60
2022-10-17T00:38:15.828Z,12.90
2022-10-17T00:40:50.211Z,11.10
2022-10-17T00:43:24.406Z,11.00
2022-10-17T00:45:52.539Z,11.60
2022-10-17T00:48:23.405Z,11.00
2022-10-17T00:50:55.746Z,11.00
2022-10-17T00:55:56.966Z,11.00
2022-10-17T00:58:26.849Z,11.10
2022-10-17T01:00:54.804Z,11.10
2022-10-17T01:11:03.322Z,11.00
2022-10-17T01:13:56.230Z,11.00
2022-10-17T01:16:54.763Z,11.10
2022-10-17T01:19:55.494Z,11.10
2022-10-17T01:22:59.369Z,11.00
2022-10-17T01:25:35.713Z,11.00
2022-10-17T01:28:40.748Z,11.10
2022-10-17T01:31:32.462Z,11.10
2022-10-17T01:34:18.624Z,11.10
2022-10-17T01:36:57.308Z,11.10
2022-10-17T01:42:24.243Z,10.60
2022-10-17T01:45:11.193Z,11.30
2022-10-17T01:47:42.784Z,11.30
2022-10-17T01:50:42.019Z,11.30
2022-10-17T01:53:15.606Z,11.30
2022-10-17T01:55:49.177Z,11.30
2022-10-17T01:58:42.783Z,11.30
2022-10-17T02:01:17.955Z,12.30
2022-10-17T02:03:46.729Z,11.30
2022-10-17T02:06:37.378Z,11.10
2022-10-17T02:09:20.607Z,11.30
2022-10-17T02:12:26.154Z,8.30
2022-10-17T02:15:37.501Z,14.00
2022-10-17T02:18:49.828Z,13.10
2022-10-17T02:21:43.448Z,11.50
2022-10-17T02:24:39.207Z,11.50
2022-10-17T02:27:13.435Z,11.50
2022-10-17T02:29:49.982Z,11.60
2022-10-17T02:32:36.274Z,11.50
2022-10-17T02:35:10.288Z,11.30
2022-10-17T02:37:43.323Z,11.40
2022-10-17T02:40:16.952Z,10.80
2022-10-17T02:42:46.337Z,11.70
2022-10-17T02:45:18.283Z,11.80
2022-10-17T02:48:09.335Z,11.70
2022-10-17T02:51:19.188Z,12.40
2022-10-17T02:53:55.927Z,10.20
2022-10-17T02:56:26.463Z,11.90
2022-10-17T02:58:59.695Z,12.00
2022-10-17T03:04:10.188Z,12.00
2022-10-17T03:09:06.864Z,12.10
2022-10-17T03:11:35.132Z,12.00
2022-10-17T03:19:03.703Z,11.20
2022-10-17T03:21:35.669Z,12.10
2022-10-17T03:24:06.307Z,12.20
2022-10-17T03:29:03.560Z,12.20
2022-10-17T03:31:33.876Z,12.90
2022-10-17T03:34:04.311Z,12.20
2022-10-17T03:36:33.340Z,13.00
2022-10-17T03:39:03.082Z,13.30
2022-10-17T03:41:32.892Z,12.20
2022-10-17T03:44:00.723Z,13.40
2022-10-17T03:46:28.593Z,12.00
2022-10-17T03:48:57.944Z,12.30
2022-10-17T03:51:25.783Z,13.00
2022-10-17T03:54:05.620Z,13.90
2022-10-17T04:04:07.938Z,12.10
2022-10-17T04:06:43.900Z,12.10
2022-10-17T04:09:19.633Z,12.10
2022-10-17T04:12:14.132Z,12.20
2022-10-17T04:17:20.836Z,12.40
2022-10-17T04:19:58.312Z,12.30
2022-10-17T04:22:34.049Z,12.70
2022-10-17T04:25:04.300Z,12.70
2022-10-17T04:30:04.629Z,13.50
2022-10-17T04:32:38.905Z,12.20
2022-10-17T04:37:49.348Z,12.30
2022-10-17T04:40:18.884Z,10.40
2022-10-17T04:55:38.981Z,12.40
2022-10-17T04:58:06.416Z,12.30
2022-10-17T05:00:34.135Z,12.60
2022-10-17T05:03:10.186Z,14.30
2022-10-17T05:05:38.704Z,13.30
2022-10-17T05:10:55.138Z,12.00
2022-10-17T05:13:30.426Z,14.40
2022-10-17T05:16:01.530Z,14.30
2022-10-17T05:18:29.082Z,12.50
2022-10-17T05:20:57.009Z,12.60
2022-10-17T05:23:24.433Z,12.60
2022-10-17T05:25:55.849Z,12.60
2022-10-17T05:28:24.412Z,12.60
2022-10-17T05:30:53.030Z,12.70
2022-10-17T05:33:20.226Z,12.70
2022-10-17T05:35:47.176Z,12.80
2022-10-17T05:38:14.741Z,12.80
2022-10-17T05:40:43.047Z,12.80
2022-10-17T05:43:10.348Z,12.90
2022-10-17T05:45:37.505Z,12.90
2022-10-17T05:48:05.457Z,12.80
2022-10-17T05:50:33.176Z,12.80
2022-10-17T05:53:05.077Z,12.70
2022-10-17T05:55:37.698Z,12.70
2022-10-17T05:58:05.318Z,12.70
2022-10-17T06:00:36.651Z,12.50
2022-10-17T06:03:04.137Z,12.60
2022-10-17T06:05:31.082Z,12.60
2022-10-17T06:08:01.819Z,12.60
2022-10-17T06:10:31.172Z,10.80
2022-10-17T06:12:59.117Z,13.80
2022-10-17T06:15:26.557Z,12.70
2022-10-17T06:18:02.189Z,12.70
2022-10-17T06:20:29.140Z,12.70
2022-10-17T06:22:56.066Z,12.70
2022-10-17T06:25:42.838Z,12.80
2022-10-17T06:28:11.233Z,12.80
2022-10-17T06:30:40.159Z,12.80
2022-10-17T06:33:07.245Z,12.80
2022-10-17T06:35:34.829Z,12.90
2022-10-17T06:38:03.089Z,13.00
2022-10-17T06:40:34.326Z,13.50
2022-10-17T06:43:01.329Z,13.00
2022-10-17T06:45:54.391Z,13.00
2022-10-17T06:48:34.085Z,13.10
2022-10-17T06:51:27.105Z,13.10
2022-10-17T06:53:58.346Z,13.20
2022-10-17T06:56:46.917Z,13.30
2022-10-17T06:59:34.267Z,13.30
2022-10-17T07:02:08.889Z,13.40
2022-10-17T07:04:37.167Z,13.40
2022-10-17T07:07:04.450Z,13.40
2022-10-17T07:09:33.731Z,13.50
2022-10-17T07:12:00.702Z,13.50
2022-10-17T07:14:31.920Z,13.50
2022-10-17T07:16:59.710Z,13.60
2022-10-17T07:19:28.757Z,13.60
2022-10-17T07:21:55.778Z,13.70
2022-10-17T07:24:22.829Z,13.60
2022-10-17T07:26:55.274Z,13.80
2022-10-17T07:29:22.357Z,13.90
2022-10-17T07:32:08.420Z,13.90
2022-10-17T07:34:36.270Z,14.00
2022-10-17T07:37:03.970Z,14.10
2022-10-17T07:39:30.858Z,14.10
2022-10-17T07:41:58.818Z,14.20
2022-10-17T07:44:25.657Z,14.20
2022-10-17T07:46:54.265Z,14.40
2022-10-17T07:49:21.330Z,14.40
2022-10-17T07:51:49.329Z,14.50
2022-10-17T07:54:16.195Z,14.40
2022-10-17T07:56:43.265Z,14.60
2022-10-17T07:59:10.200Z,14.60
2022-10-17T08:01:37.828Z,14.70
2022-10-17T08:04:05.144Z,14.80
2022-10-17T08:06:32.193Z,11.00
2022-10-17T08:08:59.635Z,14.70
2022-10-17T08:11:26.586Z,15.90
2022-10-17T08:13:53.721Z,18.50
2022-10-17T08:16:20.583Z,15.20
2022-10-17T08:18:47.615Z,15.30
2022-10-17T08:21:14.618Z,14.90
2022-10-17T08:23:42.026Z,15.40
2022-10-17T08:26:10.926Z,15.50
2022-10-17T08:28:39.621Z,15.50
2022-10-17T08:31:09.580Z,15.70
2022-10-17T08:33:36.721Z,15.70
2022-10-17T08:36:05.538Z,15.70
2022-10-17T08:38:35.601Z,15.70
2022-10-17T08:41:06.635Z,15.70
2022-10-17T08:44:12.874Z,15.70
2022-10-17T08:46:43.022Z,15.70
2022-10-17T08:49:16.303Z,15.70
2022-10-17T08:51:52.074Z,15.70
2022-10-17T08:54:32.578Z,15.70
2022-10-17T08:56:59.564Z,15.80
2022-10-17T08:59:30.925Z,15.80
2022-10-17T09:02:15.589Z,15.80
2022-10-17T09:05:05.111Z,15.80
2022-10-17T09:07:56.411Z,15.80
2022-10-17T09:10:45.222Z,15.70
2022-10-17T09:13:46.575Z,15.70
2022-10-17T09:16:40.838Z,15.70
2022-10-17T09:19:28.594Z,15.60
2022-10-17T09:22:01.354Z,15.60
2022-10-17T09:24:55.398Z,15.60
2022-10-17T09:27:38.682Z,15.70
2022-10-17T09:30:45.283Z,15.70
2022-10-17T09:33:28.071Z,15.80
2022-10-17T09:36:05.936Z,16.00
2022-10-17T09:38:45.926Z,16.30
2022-10-17T09:44:23.336Z,17.50
2022-10-17T09:46:56.227Z,18.10
2022-10-17T09:49:32.518Z,18.50
2022-10-17T09:52:04.443Z,18.80
2022-10-17T09:54:45.182Z,19.20
2022-10-17T09:57:13.296Z,19.40
2022-10-17T09:59:55.492Z,19.60
2022-10-17T10:02:24.921Z,19.70
2022-10-17T10:05:09.803Z,19.80
2022-10-17T10:07:39.284Z,20.00
2022-10-17T10:10:07.539Z,20.30
2022-10-17T10:12:38.375Z,20.40
2022-10-17T10:15:37.156Z,20.60
2022-10-17T10:18:24.990Z,20.40
2022-10-17T10:21:12.339Z,19.40
2022-10-17T10:23:42.202Z,20.10
2022-10-17T10:26:23.414Z,20.00
2022-10-17T10:29:00.901Z,20.20
2022-10-17T10:31:38.392Z,20.40
2022-10-17T10:34:21.012Z,20.50
2022-10-17T10:37:17.193Z,20.60
2022-10-17T10:39:59.430Z,20.60
2022-10-17T10:42:37.932Z,20.80
2022-10-17T10:48:22.829Z,20.80
2022-10-17T10:50:54.591Z,20.60
2022-10-17T10:53:35.525Z,20.40
2022-10-17T10:56:23.579Z,20.30
2022-10-17T10:59:10.198Z,20.20
2022-10-17T11:02:05.097Z,20.30
2022-10-17T11:04:57.015Z,20.30
2022-10-17T11:07:34.421Z,20.30
2022-10-17T11:10:19.868Z,20.10
2022-10-17T11:13:03.616Z,20.00
2022-10-17T11:15:57.307Z,20.00
2022-10-17T11:18:24.236Z,20.00
2022-10-17T11:21:00.608Z,20.10
2022-10-17T11:23:41.442Z,20.10
2022-10-17T11:26:15.307Z,20.20
2022-10-17T11:28:42.323Z,20.20
2022-10-17T11:31:14.728Z,20.20
2022-10-17T11:33:44.763Z,20.10
2022-10-17T11:36:14.089Z,20.00
2022-10-17T11:38:56.746Z,19.80
2022-10-17T11:41:35.500Z,19.70
2022-10-17T11:44:11.596Z,19.70
2022-10-17T11:46:41.723Z,19.50
2022-10-17T11:49:41.034Z,19.50
2022-10-17T11:52:27.001Z,19.50
2022-10-17T11:55:26.575Z,19.50
2022-10-17T11:58:01.156Z,19.50
2022-10-17T12:00:36.825Z,19.40
2022-10-17T12:03:12.191Z,19.30
2022-10-17T12:05:38.954Z,19.30
2022-10-17T12:08:10.698Z,19.30
2022-10-17T12:10:47.164Z,19.70
2022-10-17T12:13:35.799Z,19.40
2022-10-17T12:16:29.026Z,19.50
2022-10-17T12:19:02.052Z,19.80
2022-10-17T12:21:49.468Z,20.00
2022-10-17T12:24:35.193Z,20.30
2022-10-17T12:27:32.964Z,20.50
2022-10-17T12:30:07.592Z,20.50
2022-10-17T12:33:03.723Z,20.50
2022-10-17T12:35:24.307Z,20.40
2022-10-17T12:37:51.168Z,20.30
2022-10-17T12:40:36.212Z,20.30
2022-10-17T12:43:23.017Z,20.00
2022-10-17T12:45:49.929Z,19.90
2022-10-17T12:48:38.792Z,19.80
2022-10-17T12:54:12.792Z,19.60
2022-10-17T12:56:45.752Z,19.60
2022-10-17T12:59:23.961Z,19.50
2022-10-17T13:01:55.089Z,19.50
2022-10-17T13:04:22.507Z,19.40
2022-10-17T13:06:54.274Z,19.50
2022-10-17T13:09:33.295Z,19.30
2022-10-17T13:12:03.521Z,19.30
2022-10-17T13:14:32.996Z,19.20
2022-10-17T13:17:05.777Z,19.20
2022-10-17T13:19:42.343Z,18.90
2022-10-17T13:22:26.794Z,18.60
2022-10-17T13:25:15.603Z,18.30
2022-10-17T13:27:43.218Z,18.10
2022-10-17T13:30:27.930Z,18.00
2022-10-17T13:32:58.052Z,17.90
2022-10-17T13:35:58.951Z,17.00
2022-10-17T13:38:28.946Z,17.80
2022-10-17T13:41:05.839Z,17.80
2022-10-17T13:43:43.483Z,17.80
2022-10-17T13:46:36.730Z,17.70
2022-10-17T13:49:36.835Z,17.70
2022-10-17T13:52:06.109Z,17.70
2022-10-17T13:54:42.016Z,17.70
2022-10-17T13:57:29.552Z,17.70
2022-10-17T14:00:21.309Z,17.60
2022-10-17T14:02:48.506Z,17.60
2022-10-17T14:05:20.185Z,17.50
2022-10-17T14:08:15.286Z,18.50
2022-10-17T14:10:44.704Z,15.10
2022-10-17T14:13:24.687Z,17.30
2022-10-17T14:15:54.192Z,17.60
2022-10-17T14:18:31.983Z,17.80
2022-10-17T14:23:51.132Z,17.50
2022-10-17T14:26:21.475Z,17.60
2022-10-17T14:29:03.813Z,17.60
2022-10-17T14:31:36.742Z,17.50
2022-10-17T14:34:05.249Z,17.60
2022-10-17T14:36:39.342Z,17.50
2022-10-17T14:39:13.287Z,17.50
2022-10-17T14:41:45.528Z,17.50
2022-10-17T14:44:36.463Z,17.50
2022-10-17T14:47:30.694Z,17.50
2022-10-17T14:50:06.414Z,17.50
2022-10-17T14:52:35.051Z,17.50
2022-10-17T14:55:26.431Z,17.40
2022-10-17T14:57:53.430Z,17.40
2022-10-17T15:00:21.845Z,17.40
2022-10-17T15:02:50.834Z,17.40
2022-10-17T15:05:20.121Z,17.30
2022-10-17T15:07:47.193Z,17.40
2022-10-17T15:10:35.142Z,17.40
2022-10-17T15:13:27.088Z,17.30
2022-10-17T15:15:51.878Z,17.30
2022-10-17T15:18:19.217Z,17.30
2022-10-17T15:20:46.000Z,17.40
2022-10-17T15:23:12.841Z,17.30
2022-10-17T15:25:40.034Z,17.20
2022-10-17T15:28:06.863Z,17.30
2022-10-17T15:30:36.343Z,17.30
2022-10-17T15:33:03.533Z,17.20
2022-10-17T15:35:31.041Z,17.20
2022-10-17T15:37:57.891Z,17.20
2022-10-17T15:40:31.413Z,17.20
2022-10-17T15:42:58.557Z,17.20
2022-10-17T15:45:25.413Z,17.10
2022-10-17T15:48:06.829Z,17.10
2022-10-17T15:50:33.739Z,17.10
2022-10-17T15:53:00.694Z,17.10
2022-10-17T15:55:28.042Z,17.10
2022-10-17T15:57:54.942Z,17.10
2022-10-17T16:00:24.222Z,17.20
2022-10-17T16:02:51.373Z,17.10
2022-10-17T16:05:25.590Z,17.10
2022-10-17T16:07:57.557Z,18.00
2022-10-17T16:10:28.097Z,17.00
2022-10-17T16:12:55.318Z,17.60
2022-10-17T16:15:27.995Z,16.80
2022-10-17T16:17:57.257Z,17.00
2022-10-17T16:20:25.198Z,19.40
2022-10-17T16:22:59.538Z,16.70
2022-10-17T16:25:28.748Z,16.70
2022-10-17T16:27:57.948Z,16.70
2022-10-17T16:30:28.018Z,16.60
2022-10-17T16:32:55.939Z,16.60
2022-10-17T16:35:33.347Z,16.60
2022-10-17T16:38:04.643Z,16.60
2022-10-17T16:40:31.447Z,16.50
2022-10-17T16:42:58.401Z,16.60
2022-10-17T16:45:25.289Z,16.50
2022-10-17T16:47:53.113Z,16.50
2022-10-17T16:50:20.291Z,16.50
2022-10-17T16:52:47.171Z,16.50
2022-10-17T16:55:15.316Z,16.40
2022-10-17T17:00:12.706Z,16.40
2022-10-17T17:02:39.622Z,16.40
2022-10-17T17:05:07.271Z,16.40
2022-10-17T17:07:34.294Z,16.40
2022-10-17T17:10:01.141Z,16.40
2022-10-17T17:12:28.151Z,16.40
2022-10-17T17:14:55.014Z,16.40
2022-10-17T17:17:30.585Z,16.30
2022-10-17T17:20:09.586Z,16.40
2022-10-17T17:22:36.373Z,16.30
2022-10-17T17:25:03.438Z,16.30
2022-10-17T17:27:30.583Z,16.30
2022-10-17T17:29:57.678Z,16.20
2022-10-17T17:32:24.500Z,16.20
2022-10-17T17:34:51.355Z,16.20
2022-10-17T17:37:18.218Z,16.20
2022-10-17T17:39:45.178Z,16.10
2022-10-17T17:42:11.977Z,16.10
2022-10-17T17:44:38.750Z,16.10
2022-10-17T17:47:05.690Z,16.10
2022-10-17T17:49:32.457Z,16.00
2022-10-17T17:51:59.403Z,16.00
2022-10-17T17:54:26.298Z,16.00
2022-10-17T17:56:53.071Z,15.80
2022-10-17T17:59:20.599Z,16.00
2022-10-17T18:01:47.781Z,15.90
2022-10-17T18:04:16.352Z,15.90
2022-10-17T18:06:43.647Z,15.90
2022-10-17T18:09:10.894Z,15.90
2022-10-17T18:11:38.127Z,15.90
2022-10-17T18:14:11.711Z,15.90
2022-10-17T18:16:39.237Z,15.70
2022-10-17T18:19:08.849Z,15.90
2022-10-17T18:21:36.445Z,15.90
2022-10-17T18:24:04.785Z,15.90
2022-10-17T18:26:31.662Z,15.90
2022-10-17T18:28:58.574Z,15.80
2022-10-17T18:31:28.465Z,15.90
2022-10-17T18:33:56.997Z,16.00
2022-10-17T18:36:26.068Z,15.80
2022-10-17T18:38:54.094Z,15.80
2022-10-17T18:41:24.179Z,16.00
2022-10-17T18:43:53.075Z,15.80
2022-10-17T18:46:29.624Z,15.80
2022-10-17T18:48:56.851Z,15.80
2022-10-17T18:51:25.356Z,15.80
2022-10-17T18:53:54.759Z,15.80
2022-10-17T18:56:22.403Z,15.70
2022-10-17T18:58:49.369Z,15.70
2022-10-17T19:01:22.040Z,17.40
2022-10-17T19:03:50.484Z,15.70
2022-10-17T19:06:20.666Z,15.70
2022-10-17T19:08:48.251Z,15.60
2022-10-17T19:11:18.855Z,15.60
2022-10-17T19:13:46.955Z,15.60
2022-10-17T19:16:29.032Z,15.60
2022-10-17T19:19:06.811Z,15.60
2022-10-17T19:21:34.676Z,15.60
2022-10-17T19:24:04.801Z,15.50
2022-10-17T19:26:35.007Z,15.50
2022-10-17T19:29:02.949Z,15.50
2022-10-17T19:31:31.658Z,15.50
2022-10-17T19:33:59.654Z,15.40
2022-10-17T19:36:32.455Z,15.40
2022-10-17T19:39:03.811Z,15.30
2022-10-17T19:41:30.984Z,15.30
2022-10-17T19:43:59.542Z,15.20
2022-10-17T19:46:28.175Z,15.30
2022-10-17T19:48:57.044Z,15.30
2022-10-17T19:51:25.067Z,15.40
2022-10-17T19:53:53.572Z,15.20
2022-10-17T19:56:21.532Z,15.20
2022-10-17T19:58:49.930Z,15.20
2022-10-17T20:01:24.423Z,15.00
2022-10-17T20:04:07.304Z,15.30
2022-10-17T20:17:05.688Z,15.30
2022-10-17T20:22:53.184Z,15.00
2022-10-17T20:33:33.072Z,14.30
2022-10-17T20:36:21.442Z,15.00
2022-10-17T20:39:19.567Z,13.90
2022-10-17T20:42:52.419Z,13.40
2022-10-17T20:46:21.882Z,13.60
2022-10-17T20:56:24.693Z,14.90
2022-10-17T21:55:32.941Z,14.70
2022-10-17T22:33:50.714Z,15.60
2022-10-17T22:43:43.725Z,14.80
2022-10-17T22:50:04.106Z,14.60
2022-10-17T22:52:58.928Z,14.60
2022-10-17T22:55:35.088Z,14.60
2022-10-17T22:58:35.135Z,15.20
2022-10-17T23:04:46.999Z,14.60
2022-10-17T23:11:27.829Z,14.40
2022-10-17T23:14:40.579Z,14.50
2022-10-17T23:21:19.893Z,14.40
2022-10-17T23:23:53.158Z,13.90
2022-10-17T23:26:35.258Z,14.10
2022-10-17T23:32:49.918Z,13.40
2022-10-17T23:39:50.158Z,14.70
2022-10-17T23:42:23.185Z,14.20
2022-10-17T23:48:07.360Z,14.50
2022-10-17T23:51:18.926Z,14.20
2022-10-17T23:53:49.581Z,14.10
